createdAt,value
2024-04-25T00:00:21.785Z,77.17
2024-04-25T00:00:53.236Z,76.86
2024-04-25T00:01:27.744Z,76.66
2024-04-25T00:01:59.161Z,76.78
2024-04-25T00:02:30.590Z,76.72
2024-04-25T00:03:02.079Z,76.46
2024-04-25T00:03:33.637Z,76.61
2024-04-25T00:04:05.161Z,76.69
2024-04-25T00:04:36.621Z,76.56
2024-04-25T00:05:08.066Z,76.71
2024-04-25T00:05:40.282Z,76.60
2024-04-25T00:06:11.710Z,76.27
2024-04-25T00:06:43.170Z,76.41
2024-04-25T00:07:14.564Z,76.58
2024-04-25T00:07:46.205Z,76.88
2024-04-25T00:08:17.666Z,76.71
2024-04-25T00:08:49.107Z,76.76
2024-04-25T00:09:20.564Z,76.83
2024-04-25T00:09:51.978Z,76.93
2024-04-25T00:10:23.416Z,76.89
2024-04-25T00:10:54.940Z,76.45
2024-04-25T00:11:26.536Z,76.52
2024-04-25T00:11:58.338Z,76.70
2024-04-25T00:12:29.800Z,77.14
2024-04-25T00:13:01.251Z,76.84
2024-04-25T00:13:32.652Z,76.81
2024-04-25T00:14:04.087Z,76.80
2024-04-25T00:14:36.475Z,76.92
2024-04-25T00:15:07.929Z,76.94
2024-04-25T00:15:39.329Z,77.11
2024-04-25T00:16:10.743Z,77.13
2024-04-25T00:16:42.198Z,76.89
2024-04-25T00:17:13.630Z,76.81
2024-04-25T00:17:45.239Z,76.60
2024-04-25T00:18:16.816Z,76.67
2024-04-25T00:18:48.486Z,76.41
2024-04-25T00:19:19.910Z,76.12
2024-04-25T00:19:51.315Z,76.61
2024-04-25T00:20:23.326Z,76.62
2024-04-25T00:20:56.288Z,76.62
2024-04-25T00:21:27.696Z,76.70
2024-04-25T00:21:59.135Z,76.61
2024-04-25T00:22:31.198Z,76.68
2024-04-25T00:23:02.633Z,76.99
2024-04-25T00:23:34.134Z,77.34
2024-04-25T00:24:05.640Z,77.03
2024-04-25T00:24:37.078Z,76.51
2024-04-25T00:25:09.070Z,76.56
2024-04-25T00:25:40.664Z,76.70
2024-04-25T00:26:12.141Z,76.94
2024-04-25T00:26:43.722Z,77.00
2024-04-25T00:27:15.249Z,76.58
2024-04-25T00:27:46.716Z,76.49
2024-04-25T00:28:18.120Z,76.56
2024-04-25T00:28:49.532Z,76.43
2024-04-25T00:29:20.956Z,76.43
2024-04-25T00:29:52.384Z,76.83
2024-04-25T00:30:23.774Z,77.17
2024-04-25T00:30:55.188Z,77.14
2024-04-25T00:31:26.611Z,77.30
2024-04-25T00:31:58.016Z,77.26
2024-04-25T00:32:29.809Z,76.95
2024-04-25T00:33:01.453Z,76.70
2024-04-25T00:33:33.029Z,76.99
2024-04-25T00:34:04.490Z,77.26
2024-04-25T00:34:35.881Z,77.45
2024-04-25T00:35:07.329Z,77.32
2024-04-25T00:35:38.782Z,77.12
2024-04-25T00:36:10.244Z,77.08
2024-04-25T00:36:41.673Z,77.25
2024-04-25T00:37:13.079Z,77.21
2024-04-25T00:37:44.491Z,77.13
2024-04-25T00:38:16.471Z,77.15
2024-04-25T00:38:47.873Z,77.53
2024-04-25T00:39:19.285Z,77.54
2024-04-25T00:39:51.253Z,77.57
2024-04-25T00:40:22.684Z,77.32
2024-04-25T00:40:54.078Z,77.23
2024-04-25T00:41:25.579Z,77.54
2024-04-25T00:41:57.026Z,77.77
2024-04-25T00:42:28.428Z,77.44
2024-04-25T00:43:00.618Z,77.53
2024-04-25T00:43:32.580Z,77.07
2024-04-25T00:44:04.023Z,76.91
2024-04-25T00:44:35.509Z,77.04
2024-04-25T00:45:07.071Z,76.87
2024-04-25T00:45:38.501Z,76.99
2024-04-25T00:46:09.893Z,76.91
2024-04-25T00:46:42.753Z,77.23
2024-04-25T00:47:18.218Z,77.35
2024-04-25T00:47:50.842Z,77.14
2024-04-25T00:48:23.829Z,77.00
2024-04-25T00:48:56.447Z,77.07
2024-04-25T00:49:28.326Z,77.28
2024-04-25T00:50:00.794Z,76.97
2024-04-25T00:50:33.741Z,77.03
2024-04-25T00:51:07.717Z,77.24
2024-04-25T00:51:40.431Z,77.34
2024-04-25T00:52:15.647Z,77.31
2024-04-25T00:52:47.086Z,77.49
2024-04-25T00:53:19.268Z,77.14
2024-04-25T00:53:50.980Z,76.79
2024-04-25T00:54:22.471Z,76.53
2024-04-25T00:54:53.882Z,76.67
2024-04-25T00:55:27.083Z,76.52
2024-04-25T00:55:59.340Z,76.59
2024-04-25T00:56:31.770Z,76.34
2024-04-25T00:57:07.019Z,76.20
2024-04-25T00:57:39.119Z,76.46
2024-04-25T00:58:11.623Z,76.48
2024-04-25T00:58:46.019Z,76.19
2024-04-25T00:59:21.050Z,76.14
2024-04-25T00:59:55.611Z,76.40
2024-04-25T01:00:27.390Z,75.98
2024-04-25T01:01:01.426Z,76.01
2024-04-25T01:01:35.654Z,76.44
2024-04-25T01:02:09.324Z,76.24
2024-04-25T01:02:42.425Z,76.55
2024-04-25T01:03:14.742Z,76.52
2024-04-25T01:03:46.956Z,76.31
2024-04-25T01:04:25.413Z,76.42
2024-04-25T01:04:59.798Z,76.62
2024-04-25T01:05:33.903Z,76.39
2024-04-25T01:06:07.117Z,76.57
2024-04-25T01:06:41.266Z,76.75
2024-04-25T01:07:15.202Z,77.17
2024-04-25T01:07:47.823Z,77.15
2024-04-25T01:08:19.237Z,77.57
2024-04-25T01:08:50.878Z,77.42
2024-04-25T01:09:22.292Z,77.32
2024-04-25T01:09:56.762Z,76.91
2024-04-25T01:10:28.191Z,77.45
2024-04-25T01:11:00.120Z,77.56
2024-04-25T01:11:33.292Z,77.39
2024-04-25T01:12:05.288Z,77.36
2024-04-25T01:12:36.721Z,77.55
2024-04-25T01:13:08.150Z,77.49
2024-04-25T01:13:39.709Z,77.23
2024-04-25T01:14:11.144Z,77.15
2024-04-25T01:14:42.608Z,77.34
2024-04-25T01:15:14.165Z,77.63
2024-04-25T01:15:45.774Z,77.70
2024-04-25T01:16:17.417Z,77.84
2024-04-25T01:16:48.934Z,77.76
2024-04-25T01:17:20.525Z,77.68
2024-04-25T01:17:51.990Z,77.84
2024-04-25T01:18:23.564Z,77.90
2024-04-25T01:18:54.968Z,78.05
2024-04-25T01:19:26.399Z,78.07
2024-04-25T01:19:57.997Z,78.09
2024-04-25T01:20:29.447Z,77.94
2024-04-25T01:21:00.849Z,78.03
2024-04-25T01:21:34.230Z,78.03
2024-04-25T01:22:06.472Z,78.13
2024-04-25T01:22:49.058Z,78.11
2024-04-25T01:23:25.815Z,77.89
2024-04-25T01:24:02.149Z,78.11
2024-04-25T01:24:33.946Z,78.22
2024-04-25T01:25:07.012Z,78.05
2024-04-25T01:25:38.780Z,78.11
2024-04-25T01:26:11.573Z,78.36
2024-04-25T01:26:43.819Z,78.60
2024-04-25T01:27:16.850Z,78.52
2024-04-25T01:27:49.922Z,78.28
2024-04-25T01:28:21.662Z,78.34
2024-04-25T01:28:55.732Z,78.75
2024-04-25T01:29:29.960Z,78.68
2024-04-25T01:30:02.406Z,78.43
2024-04-25T01:30:34.224Z,78.18
2024-04-25T01:31:07.440Z,78.12
2024-04-25T01:31:39.081Z,78.26
2024-04-25T01:32:11.796Z,78.23
2024-04-25T01:32:44.665Z,78.14
2024-04-25T01:33:16.863Z,78.54
2024-04-25T01:33:48.982Z,78.38
2024-04-25T01:34:21.128Z,78.36
2024-04-25T01:34:52.641Z,78.87
2024-04-25T01:35:29.127Z,78.49
2024-04-25T01:36:00.759Z,78.25
2024-04-25T01:36:32.554Z,78.27
2024-04-25T01:37:03.976Z,78.29
2024-04-25T01:37:35.549Z,78.40
2024-04-25T01:38:06.995Z,78.62
2024-04-25T01:38:38.575Z,78.71
2024-04-25T01:39:10.736Z,78.47
2024-04-25T01:39:42.268Z,78.20
2024-04-25T01:40:13.751Z,78.03
2024-04-25T01:40:45.165Z,78.08
2024-04-25T01:41:16.707Z,78.10
2024-04-25T01:41:48.162Z,78.14
2024-04-25T01:42:19.600Z,78.29
2024-04-25T01:42:51.255Z,78.32
2024-04-25T01:43:22.669Z,77.85
2024-04-25T01:43:54.090Z,77.78
2024-04-25T01:44:25.508Z,78.02
2024-04-25T01:44:56.939Z,78.26
2024-04-25T01:45:28.324Z,77.95
2024-04-25T01:45:59.728Z,78.16
2024-04-25T01:46:31.885Z,78.25
2024-04-25T01:47:03.295Z,77.97
2024-04-25T01:47:34.852Z,78.22
2024-04-25T01:48:06.613Z,77.96
2024-04-25T01:48:38.244Z,77.83
2024-04-25T01:49:09.846Z,77.18
2024-04-25T01:49:41.422Z,77.02
2024-04-25T01:50:12.911Z,77.26
2024-04-25T01:50:44.375Z,77.25
2024-04-25T01:51:15.858Z,77.25
2024-04-25T01:51:47.272Z,76.98
2024-04-25T01:52:18.712Z,77.24
2024-04-25T01:52:50.112Z,77.72
2024-04-25T01:53:21.773Z,77.73
2024-04-25T01:53:53.169Z,77.72
2024-04-25T01:54:24.599Z,77.77
2024-04-25T01:54:56.000Z,77.79
2024-04-25T01:55:27.411Z,77.83
2024-04-25T01:55:58.870Z,77.91
2024-04-25T01:56:31.226Z,77.52
2024-04-25T01:57:03.458Z,77.71
2024-04-25T01:57:34.862Z,77.90
2024-04-25T01:58:06.341Z,77.73
2024-04-25T01:58:37.745Z,77.80
2024-04-25T01:59:09.584Z,77.64
2024-04-25T01:59:41.072Z,77.72
2024-04-25T02:00:12.605Z,77.68
2024-04-25T02:00:44.045Z,77.62
2024-04-25T02:01:15.448Z,77.33
2024-04-25T02:01:46.882Z,77.53
2024-04-25T02:02:18.273Z,77.43
2024-04-25T02:02:49.865Z,77.43
2024-04-25T02:03:21.412Z,77.68
2024-04-25T02:03:52.838Z,77.09
2024-04-25T02:04:24.232Z,77.17
2024-04-25T02:04:55.665Z,77.37
2024-04-25T02:05:27.089Z,77.41
2024-04-25T02:05:58.725Z,77.21
2024-04-25T02:06:30.130Z,77.30
2024-04-25T02:07:01.618Z,77.53
2024-04-25T02:07:33.409Z,77.73
2024-04-25T02:08:05.161Z,77.84
2024-04-25T02:08:36.595Z,77.60
2024-04-25T02:09:08.193Z,77.90
2024-04-25T02:09:39.661Z,78.18
2024-04-25T02:10:11.116Z,77.97
2024-04-25T02:10:42.581Z,78.01
2024-04-25T02:11:14.006Z,77.74
2024-04-25T02:11:45.459Z,77.56
2024-04-25T02:12:18.563Z,77.40
2024-04-25T02:12:49.958Z,77.38
2024-04-25T02:13:21.870Z,77.47
2024-04-25T02:13:53.281Z,77.79
2024-04-25T02:14:24.711Z,77.93
2024-04-25T02:14:56.667Z,77.39
2024-04-25T02:15:28.167Z,76.57
2024-04-25T02:15:59.550Z,76.48
2024-04-25T02:16:31.178Z,77.17
2024-04-25T02:17:02.592Z,77.51
2024-04-25T02:17:37.377Z,77.58
2024-04-25T02:18:09.178Z,77.56
2024-04-25T02:18:40.713Z,77.52
2024-04-25T02:19:12.152Z,77.20
2024-04-25T02:19:43.584Z,76.60
2024-04-25T02:20:33.937Z,76.35
2024-04-25T02:21:24.166Z,76.86
2024-04-25T02:22:14.339Z,77.08
2024-04-25T02:23:04.793Z,77.16
2024-04-25T02:23:54.861Z,76.91
2024-04-25T02:24:45.200Z,77.21
2024-04-25T02:25:16.970Z,77.02
2024-04-25T02:25:48.388Z,76.83
2024-04-25T02:26:19.863Z,76.74
2024-04-25T02:26:51.274Z,76.94
2024-04-25T02:27:22.671Z,76.93
2024-04-25T02:27:54.085Z,76.92
2024-04-25T02:28:25.513Z,77.02
2024-04-25T02:28:56.938Z,77.21
2024-04-25T02:29:28.353Z,77.56
2024-04-25T02:29:59.749Z,77.81
2024-04-25T02:30:31.165Z,77.61
2024-04-25T02:31:03.013Z,77.26
2024-04-25T02:31:37.381Z,77.30
2024-04-25T02:32:09.046Z,77.18
2024-04-25T02:32:42.303Z,76.83
2024-04-25T02:33:13.984Z,76.85
2024-04-25T02:33:47.036Z,77.03
2024-04-25T02:34:18.462Z,76.94
2024-04-25T02:34:49.886Z,77.07
2024-04-25T02:35:23.006Z,77.08
2024-04-25T02:35:54.474Z,76.86
2024-04-25T02:36:25.929Z,76.98
2024-04-25T02:36:57.386Z,76.96
2024-04-25T02:37:28.800Z,76.92
2024-04-25T02:38:00.219Z,76.63
2024-04-25T02:38:31.687Z,76.40
2024-04-25T02:39:03.115Z,76.44
2024-04-25T02:39:34.516Z,76.49
2024-04-25T02:40:06.302Z,76.36
2024-04-25T02:40:37.711Z,76.20
2024-04-25T02:41:09.159Z,76.03
2024-04-25T02:41:40.562Z,76.13
2024-04-25T02:42:11.961Z,75.99
2024-04-25T02:42:43.384Z,76.36
2024-04-25T02:43:14.791Z,76.78
2024-04-25T02:43:46.194Z,76.86
2024-04-25T02:44:17.723Z,76.82
2024-04-25T02:44:49.123Z,76.83
2024-04-25T02:45:20.544Z,76.84
2024-04-25T02:45:52.023Z,77.00
2024-04-25T02:46:23.460Z,76.86
2024-04-25T02:46:54.872Z,76.69
2024-04-25T02:47:26.434Z,76.48
2024-04-25T02:47:57.964Z,76.60
2024-04-25T02:48:29.498Z,76.56
2024-04-25T02:49:00.988Z,76.28
2024-04-25T02:49:32.469Z,76.25
2024-04-25T02:50:04.376Z,76.35
2024-04-25T02:50:35.866Z,76.17
2024-04-25T02:51:07.313Z,76.13
2024-04-25T02:51:40.170Z,76.47
2024-04-25T02:52:11.599Z,76.91
2024-04-25T02:52:42.995Z,76.61
2024-04-25T02:53:14.513Z,76.37
2024-04-25T02:53:45.952Z,76.66
2024-04-25T02:54:17.348Z,76.71
2024-04-25T02:54:51.793Z,76.65
2024-04-25T02:55:23.425Z,76.68
2024-04-25T02:55:54.838Z,77.15
2024-04-25T02:56:26.274Z,76.96
2024-04-25T02:56:58.967Z,76.52
2024-04-25T02:57:30.392Z,76.86
2024-04-25T02:58:02.361Z,76.99
2024-04-25T02:58:33.798Z,76.94
2024-04-25T02:59:05.226Z,76.77
2024-04-25T02:59:36.647Z,76.50
2024-04-25T03:00:08.483Z,76.26
2024-04-25T03:00:39.945Z,76.24
2024-04-25T03:01:11.422Z,76.15
2024-04-25T03:01:42.841Z,75.99
2024-04-25T03:02:15.322Z,76.17
2024-04-25T03:02:46.909Z,76.51
2024-04-25T03:03:18.555Z,76.34
2024-04-25T03:03:50.043Z,75.97
2024-04-25T03:04:21.507Z,76.09
2024-04-25T03:04:52.918Z,76.16
2024-04-25T03:05:24.502Z,75.95
2024-04-25T03:05:56.140Z,75.88
2024-04-25T03:06:28.975Z,76.19
2024-04-25T03:07:00.377Z,76.37
2024-04-25T03:07:33.666Z,76.43
2024-04-25T03:08:05.194Z,76.50
2024-04-25T03:08:36.617Z,76.44
2024-04-25T03:09:08.998Z,76.47
2024-04-25T03:09:40.400Z,76.54
2024-04-25T03:10:11.820Z,76.78
2024-04-25T03:10:43.226Z,76.91
2024-04-25T03:11:14.710Z,76.97
2024-04-25T03:11:46.172Z,77.03
2024-04-25T03:12:17.697Z,77.07
2024-04-25T03:12:49.189Z,76.87
2024-04-25T03:13:20.600Z,76.97
2024-04-25T03:13:51.996Z,77.03
2024-04-25T03:14:23.485Z,77.12
2024-04-25T03:14:55.781Z,77.39
2024-04-25T03:15:27.178Z,77.33
2024-04-25T03:16:05.115Z,77.15
2024-04-25T03:16:36.527Z,77.06
2024-04-25T03:17:08.151Z,77.10
2024-04-25T03:17:39.651Z,77.31
2024-04-25T03:18:11.235Z,77.35
2024-04-25T03:18:42.746Z,77.52
2024-04-25T03:19:14.476Z,77.65
2024-04-25T03:19:46.160Z,77.62
2024-04-25T03:20:17.588Z,77.36
2024-04-25T03:20:50.911Z,77.09
2024-04-25T03:21:23.266Z,77.04
2024-04-25T03:21:54.676Z,76.76
2024-04-25T03:22:26.091Z,76.52
2024-04-25T03:22:57.501Z,76.46
2024-04-25T03:23:30.800Z,76.41
2024-04-25T03:24:02.207Z,76.50
2024-04-25T03:24:33.616Z,76.54
2024-04-25T03:25:07.976Z,76.54
2024-04-25T03:25:40.811Z,76.00
2024-04-25T03:26:12.246Z,75.89
2024-04-25T03:26:43.707Z,75.96
2024-04-25T03:27:15.318Z,75.98
2024-04-25T03:27:46.729Z,76.33
2024-04-25T03:28:18.425Z,75.82
2024-04-25T03:28:49.851Z,75.63
2024-04-25T03:29:21.334Z,75.77
2024-04-25T03:29:54.429Z,75.72
2024-04-25T03:30:25.959Z,76.03
2024-04-25T03:30:57.456Z,75.99
2024-04-25T03:31:28.876Z,76.04
2024-04-25T03:32:00.327Z,76.13
2024-04-25T03:32:31.818Z,76.47
2024-04-25T03:33:03.516Z,76.45
2024-04-25T03:33:35.140Z,76.55
2024-04-25T03:34:06.576Z,76.46
2024-04-25T03:34:38.161Z,76.49
2024-04-25T03:35:09.604Z,76.41
2024-04-25T03:35:41.058Z,76.48
2024-04-25T03:36:12.482Z,77.18
2024-04-25T03:36:44.741Z,77.34
2024-04-25T03:37:16.687Z,77.31
2024-04-25T03:37:48.116Z,77.50
2024-04-25T03:38:19.633Z,77.23
2024-04-25T03:38:51.371Z,76.92
2024-04-25T03:39:22.775Z,77.24
2024-04-25T03:39:54.194Z,77.52
2024-04-25T03:40:25.600Z,77.66
2024-04-25T03:40:57.024Z,77.45
2024-04-25T03:41:28.441Z,77.19
2024-04-25T03:41:59.874Z,77.23
2024-04-25T03:42:31.287Z,77.17
2024-04-25T03:43:03.104Z,77.23
2024-04-25T03:43:34.509Z,77.28
2024-04-25T03:44:05.939Z,77.58
2024-04-25T03:44:37.406Z,77.96
2024-04-25T03:45:08.880Z,77.68
2024-04-25T03:45:40.323Z,77.59
2024-04-25T03:46:12.289Z,77.81
2024-04-25T03:46:47.514Z,77.70
2024-04-25T03:47:20.567Z,77.98
2024-04-25T03:47:52.250Z,78.12
2024-04-25T03:48:23.958Z,78.13
2024-04-25T03:48:55.534Z,77.81
2024-04-25T03:49:26.994Z,77.50
2024-04-25T03:49:58.414Z,77.78
2024-04-25T03:50:29.855Z,77.73
2024-04-25T03:51:01.750Z,77.72
2024-04-25T03:51:34.029Z,77.70
2024-04-25T03:52:05.445Z,77.68
2024-04-25T03:52:36.847Z,77.09
2024-04-25T03:53:10.362Z,77.18
2024-04-25T03:53:43.235Z,77.03
2024-04-25T03:54:14.646Z,77.04
2024-04-25T03:54:46.063Z,77.20
2024-04-25T03:55:17.951Z,77.81
2024-04-25T03:55:49.376Z,78.15
2024-04-25T03:56:20.843Z,77.95
2024-04-25T03:56:52.358Z,77.87
2024-04-25T03:57:23.789Z,78.00
2024-04-25T03:57:55.185Z,77.38
2024-04-25T03:58:26.586Z,77.12
2024-04-25T03:58:58.003Z,77.19
2024-04-25T03:59:29.485Z,77.40
2024-04-25T04:00:00.909Z,77.76
2024-04-25T04:00:32.313Z,78.05
2024-04-25T04:01:03.831Z,77.93
2024-04-25T04:01:35.231Z,77.82
2024-04-25T04:02:06.753Z,77.96
2024-04-25T04:02:38.303Z,77.97
2024-04-25T04:03:10.418Z,77.88
2024-04-25T04:03:42.000Z,77.29
2024-04-25T04:04:13.438Z,77.30
2024-04-25T04:04:44.850Z,77.36
2024-04-25T04:05:17.081Z,77.41
2024-04-25T04:05:48.556Z,77.30
2024-04-25T04:06:20.523Z,77.31
2024-04-25T04:06:51.913Z,77.53
2024-04-25T04:07:23.386Z,77.61
2024-04-25T04:07:54.809Z,77.60
2024-04-25T04:08:26.558Z,77.70
2024-04-25T04:08:57.996Z,77.67
2024-04-25T04:09:29.406Z,77.76
2024-04-25T04:10:00.794Z,78.08
2024-04-25T04:10:32.474Z,78.18
2024-04-25T04:11:03.937Z,78.28
2024-04-25T04:11:38.795Z,78.23
2024-04-25T04:12:10.366Z,77.96
2024-04-25T04:12:42.520Z,77.93
2024-04-25T04:13:13.934Z,78.27
2024-04-25T04:13:45.766Z,78.43
2024-04-25T04:14:17.453Z,78.65
2024-04-25T04:14:49.218Z,78.53
2024-04-25T04:15:21.257Z,78.92
2024-04-25T04:15:52.924Z,79.08
2024-04-25T04:16:24.470Z,79.41
2024-04-25T04:16:57.317Z,79.48
2024-04-25T04:17:30.273Z,79.45
2024-04-25T04:18:01.905Z,79.67
2024-04-25T04:18:33.361Z,79.71
2024-04-25T04:19:04.782Z,79.51
2024-04-25T04:19:36.213Z,79.34
2024-04-25T04:20:07.942Z,79.03
2024-04-25T04:20:39.802Z,78.82
2024-04-25T04:21:13.559Z,78.94
2024-04-25T04:21:45.583Z,78.90
2024-04-25T04:22:17.182Z,79.08
2024-04-25T04:22:48.780Z,79.25
2024-04-25T04:23:20.211Z,79.37
2024-04-25T04:23:51.619Z,79.09
2024-04-25T04:24:23.026Z,78.98
2024-04-25T04:24:55.706Z,79.22
2024-04-25T04:25:27.126Z,79.12
2024-04-25T04:25:58.551Z,78.99
2024-04-25T04:26:29.956Z,78.92
2024-04-25T04:27:01.634Z,79.08
2024-04-25T04:27:33.063Z,79.46
2024-04-25T04:28:04.749Z,79.02
2024-04-25T04:28:36.201Z,78.80
2024-04-25T04:29:07.691Z,78.54
2024-04-25T04:29:39.227Z,78.64
2024-04-25T04:30:11.125Z,78.40
2024-04-25T04:30:42.575Z,78.64
2024-04-25T04:31:13.983Z,78.71
2024-04-25T04:31:45.415Z,78.95
2024-04-25T04:32:16.896Z,78.42
2024-04-25T04:32:48.499Z,78.24
2024-04-25T04:33:20.119Z,78.80
2024-04-25T04:33:51.823Z,78.43
2024-04-25T04:34:23.299Z,77.93
2024-04-25T04:34:54.711Z,77.76
2024-04-25T04:35:26.183Z,77.91
2024-04-25T04:35:57.610Z,78.08
2024-04-25T04:36:34.004Z,77.98
2024-04-25T04:37:05.418Z,77.96
2024-04-25T04:37:37.152Z,77.86
2024-04-25T04:38:08.614Z,77.68
2024-04-25T04:38:40.068Z,77.60
2024-04-25T04:39:11.564Z,77.72
2024-04-25T04:39:42.976Z,77.92
2024-04-25T04:40:14.425Z,77.73
2024-04-25T04:40:45.819Z,77.61
2024-04-25T04:41:17.541Z,77.45
2024-04-25T04:41:48.938Z,76.94
2024-04-25T04:42:20.393Z,76.88
2024-04-25T04:42:51.803Z,77.04
2024-04-25T04:43:24.130Z,77.09
2024-04-25T04:43:55.514Z,77.03
2024-04-25T04:44:26.943Z,76.85
2024-04-25T04:44:58.343Z,76.80
2024-04-25T04:45:29.772Z,76.54
2024-04-25T04:46:03.743Z,76.78
2024-04-25T04:46:35.176Z,76.42
2024-04-25T04:47:06.640Z,76.86
2024-04-25T04:47:38.386Z,76.65
2024-04-25T04:48:15.916Z,76.65
2024-04-25T04:48:51.426Z,75.86
2024-04-25T04:49:22.839Z,74.54
2024-04-25T04:49:54.248Z,75.12
2024-04-25T04:50:25.737Z,75.89
2024-04-25T04:50:57.148Z,75.75
2024-04-25T04:51:28.559Z,75.22
2024-04-25T04:51:59.986Z,74.79
2024-04-25T04:52:32.453Z,74.83
2024-04-25T04:53:03.944Z,75.61
2024-04-25T04:53:35.394Z,75.80
2024-04-25T04:54:06.820Z,75.61
2024-04-25T04:54:38.288Z,75.27
2024-04-25T04:55:09.700Z,75.33
2024-04-25T04:55:42.363Z,75.40
2024-04-25T04:56:14.118Z,74.88
2024-04-25T04:56:45.727Z,74.92
2024-04-25T04:57:17.229Z,75.55
2024-04-25T04:57:48.623Z,74.93
2024-04-25T04:58:20.050Z,75.03
2024-04-25T04:58:51.460Z,74.83
2024-04-25T04:59:22.922Z,74.91
2024-04-25T04:59:54.321Z,74.75
2024-04-25T05:00:25.741Z,74.63
2024-04-25T05:00:58.910Z,74.44
2024-04-25T05:01:30.379Z,74.53
2024-04-25T05:02:02.632Z,74.42
2024-04-25T05:02:34.184Z,74.21
2024-04-25T05:03:08.176Z,74.30
2024-04-25T05:03:39.676Z,73.94
2024-04-25T05:04:11.153Z,73.89
2024-04-25T05:04:42.763Z,74.03
2024-04-25T05:05:14.181Z,74.78
2024-04-25T05:05:45.717Z,74.68
2024-04-25T05:06:17.272Z,73.80
2024-04-25T05:06:48.724Z,73.57
2024-04-25T05:07:20.328Z,74.08
2024-04-25T05:07:59.118Z,74.13
2024-04-25T05:08:31.637Z,73.99
2024-04-25T05:09:06.397Z,71.95
2024-04-25T05:09:37.865Z,72.07
2024-04-25T05:10:09.297Z,72.99
2024-04-25T05:10:40.729Z,72.97
2024-04-25T05:11:12.678Z,72.91
2024-04-25T05:11:44.159Z,72.53
2024-04-25T05:12:18.707Z,72.70
2024-04-25T05:12:50.106Z,72.53
2024-04-25T05:13:21.512Z,71.94
2024-04-25T05:13:52.939Z,71.80
2024-04-25T05:14:24.379Z,72.48
2024-04-25T05:14:55.760Z,72.36
2024-04-25T05:15:27.211Z,72.40
2024-04-25T05:15:58.692Z,72.00
2024-04-25T05:16:33.178Z,72.07
2024-04-25T05:17:05.188Z,72.40
2024-04-25T05:17:37.956Z,72.29
2024-04-25T05:18:11.133Z,72.24
2024-04-25T05:18:42.575Z,71.58
2024-04-25T05:19:14.006Z,71.04
2024-04-25T05:19:45.446Z,71.53
2024-04-25T05:20:16.849Z,72.44
2024-04-25T05:20:48.278Z,72.06
2024-04-25T05:21:20.367Z,71.74
2024-04-25T05:21:54.548Z,72.28
2024-04-25T05:22:25.956Z,72.36
2024-04-25T05:22:57.437Z,71.94
2024-04-25T05:23:29.065Z,71.70
2024-04-25T05:24:01.106Z,70.82
2024-04-25T05:24:32.493Z,70.03
2024-04-25T05:25:04.148Z,70.47
2024-04-25T05:25:35.541Z,70.81
2024-04-25T05:26:07.754Z,70.97
2024-04-25T05:26:39.331Z,70.18
2024-04-25T05:27:10.726Z,69.73
2024-04-25T05:27:42.143Z,69.94
2024-04-25T05:28:13.569Z,69.69
2024-04-25T05:28:44.989Z,69.78
2024-04-25T05:29:16.438Z,69.73
2024-04-25T05:29:47.899Z,69.51
2024-04-25T05:30:21.372Z,70.04
2024-04-25T05:30:52.786Z,70.21
2024-04-25T05:31:24.207Z,70.67
2024-04-25T05:31:57.607Z,70.47
2024-04-25T05:32:29.090Z,70.65
2024-04-25T05:33:03.436Z,70.49
2024-04-25T05:33:34.990Z,70.09
2024-04-25T05:34:06.517Z,70.48
2024-04-25T05:34:38.017Z,70.58
2024-04-25T05:35:09.509Z,70.78
2024-04-25T05:35:44.901Z,69.76
2024-04-25T05:36:16.464Z,69.48
2024-04-25T05:36:47.897Z,69.57
2024-04-25T05:37:19.308Z,69.48
2024-04-25T05:37:50.797Z,69.57
2024-04-25T05:38:22.351Z,70.24
2024-04-25T05:38:54.062Z,69.27
2024-04-25T05:39:26.432Z,68.64
2024-04-25T05:39:58.050Z,69.02
2024-04-25T05:40:29.466Z,69.46
2024-04-25T05:41:02.511Z,69.21
2024-04-25T05:41:33.950Z,69.14
2024-04-25T05:42:05.690Z,69.52
2024-04-25T05:42:37.205Z,70.17
2024-04-25T05:43:11.525Z,69.65
2024-04-25T05:43:44.678Z,68.60
2024-04-25T05:44:16.214Z,67.35
2024-04-25T05:44:49.611Z,67.23
2024-04-25T05:45:21.292Z,67.49
2024-04-25T05:45:52.684Z,68.06
2024-04-25T05:46:26.043Z,69.21
2024-04-25T05:46:57.872Z,69.34
2024-04-25T05:47:29.387Z,69.44
2024-04-25T05:48:01.053Z,69.74
2024-04-25T05:48:32.973Z,69.82
2024-04-25T05:49:04.423Z,69.25
2024-04-25T05:49:35.834Z,69.29
2024-04-25T05:50:09.516Z,69.81
2024-04-25T05:50:41.683Z,70.13
2024-04-25T05:51:13.316Z,70.39
2024-04-25T05:51:44.727Z,70.12
2024-04-25T05:52:16.924Z,69.82
2024-04-25T05:52:48.362Z,69.54
2024-04-25T05:53:19.758Z,68.75
2024-04-25T05:53:51.193Z,68.47
2024-04-25T05:54:24.097Z,68.76
2024-04-25T05:54:55.526Z,68.75
2024-04-25T05:55:26.928Z,68.40
2024-04-25T05:55:58.357Z,69.10
2024-04-25T05:56:29.857Z,68.41
2024-04-25T05:57:01.465Z,68.31
2024-04-25T05:57:33.191Z,68.35
2024-04-25T05:58:04.621Z,67.79
2024-04-25T05:58:36.669Z,67.18
2024-04-25T05:59:09.301Z,67.71
2024-04-25T05:59:40.803Z,67.83
2024-04-25T06:00:12.233Z,67.88
2024-04-25T06:00:43.720Z,67.18
2024-04-25T06:01:17.886Z,67.30
2024-04-25T06:01:49.313Z,68.15
2024-04-25T06:02:24.725Z,67.73
2024-04-25T06:02:57.808Z,68.37
2024-04-25T06:03:30.482Z,68.18
2024-04-25T06:04:02.030Z,68.41
2024-04-25T06:04:33.613Z,66.85
2024-04-25T06:05:05.068Z,65.95
2024-04-25T06:05:36.533Z,67.20
2024-04-25T06:06:07.991Z,67.20
2024-04-25T06:06:39.438Z,66.86
2024-04-25T06:07:10.967Z,67.77
2024-04-25T06:07:42.402Z,67.62
2024-04-25T06:08:13.842Z,67.10
2024-04-25T06:08:45.291Z,67.43
2024-04-25T06:09:16.717Z,67.12
2024-04-25T06:09:48.841Z,66.83
2024-04-25T06:10:21.769Z,66.89
2024-04-25T06:10:53.248Z,67.36
2024-04-25T06:11:27.379Z,67.93
2024-04-25T06:11:59.175Z,67.72
2024-04-25T06:12:30.942Z,67.40
2024-04-25T06:13:02.545Z,66.67
2024-04-25T06:13:33.988Z,66.93
2024-04-25T06:14:05.455Z,67.11
2024-04-25T06:14:36.924Z,66.66
2024-04-25T06:15:08.534Z,66.89
2024-04-25T06:15:39.970Z,67.16
2024-04-25T06:16:11.650Z,66.34
2024-04-25T06:16:43.196Z,66.02
2024-04-25T06:17:14.721Z,66.30
2024-04-25T06:17:46.278Z,65.98
2024-04-25T06:18:17.836Z,66.35
2024-04-25T06:18:49.243Z,66.15
2024-04-25T06:19:20.688Z,66.12
2024-04-25T06:19:52.068Z,66.38
2024-04-25T06:20:23.529Z,66.52
2024-04-25T06:20:57.503Z,65.62
2024-04-25T06:21:29.063Z,65.00
2024-04-25T06:22:02.677Z,64.20
2024-04-25T06:22:34.212Z,64.23
2024-04-25T06:23:06.208Z,63.58
2024-04-25T06:23:37.661Z,64.17
2024-04-25T06:24:09.297Z,63.68
2024-04-25T06:24:41.379Z,63.06
2024-04-25T06:25:12.807Z,62.38
2024-04-25T06:25:45.363Z,62.18
2024-04-25T06:26:16.848Z,62.68
2024-04-25T06:26:48.319Z,62.13
2024-04-25T06:27:19.734Z,63.71
2024-04-25T06:27:51.157Z,64.80
2024-04-25T06:28:22.564Z,64.90
2024-04-25T06:28:54.078Z,63.83
2024-04-25T06:29:25.671Z,62.17
2024-04-25T06:29:59.611Z,61.10
2024-04-25T06:30:31.022Z,62.59
2024-04-25T06:31:02.506Z,61.94
2024-04-25T06:31:34.386Z,61.88
2024-04-25T06:32:05.953Z,63.15
2024-04-25T06:32:39.618Z,62.87
2024-04-25T06:33:11.360Z,62.87
2024-04-25T06:33:42.913Z,63.17
2024-04-25T06:34:14.376Z,63.27
2024-04-25T06:34:46.564Z,62.48
2024-04-25T06:35:18.405Z,62.07
2024-04-25T06:35:49.891Z,62.20
2024-04-25T06:36:21.304Z,62.72
2024-04-25T06:36:52.757Z,63.55
2024-04-25T06:37:24.156Z,63.21
2024-04-25T06:37:57.267Z,63.13
2024-04-25T06:38:28.741Z,62.45
2024-04-25T06:39:01.655Z,62.70
2024-04-25T06:39:33.101Z,62.04
2024-04-25T06:40:05.045Z,63.73
2024-04-25T06:40:36.579Z,62.72
2024-04-25T06:41:09.744Z,62.89
2024-04-25T06:41:47.159Z,61.94
2024-04-25T06:42:25.315Z,61.60
2024-04-25T06:42:56.782Z,61.55
2024-04-25T06:43:29.500Z,61.02
2024-04-25T06:44:07.454Z,61.52
2024-04-25T06:44:52.759Z,62.57
2024-04-25T06:45:25.104Z,61.54
2024-04-25T06:45:56.614Z,60.41
2024-04-25T06:46:28.018Z,60.99
2024-04-25T06:46:59.431Z,60.93
2024-04-25T06:47:31.774Z,60.27
2024-04-25T06:48:04.797Z,60.73
2024-04-25T06:48:36.339Z,62.31
2024-04-25T06:49:07.989Z,63.07
2024-04-25T06:49:39.537Z,62.07
2024-04-25T06:50:10.956Z,63.06
2024-04-25T06:50:42.525Z,63.80
2024-04-25T06:51:19.092Z,62.59
2024-04-25T06:51:51.018Z,61.81
2024-04-25T06:52:22.498Z,61.10
2024-04-25T06:52:53.901Z,61.20
2024-04-25T06:53:25.327Z,60.99